sensor_id;sensor_type;location;lat;lon;timestamp;pressure;altitude;pressure_sealevel;temperature;humidity
17950;BME280;9100;48.700;9.316;2023-03-22T00:00:57;97618.4;;;13.48;100
17950;BME280;9100;48.700;9.316;2023-03-22T00:01:57;97618.4;;;13.48;100
17950;BME280;9100;48.700;9.316;2023-03-22T00:02:57;97609;;;13.49;100
17950;BME280;9100;48.700;9.316;2023-03-22T00:03:25;97613.3;;;13.48;100
17950;BME280;9100;48.700;9.316;2023-03-22T00:03:57;97611.7;;;13.47;100
17950;BME280;9100;48.700;9.316;2023-03-22T00:04:57;97605.8;;;13.47;100
17950;BME280;9100;48.700;9.316;2023-03-22T00:05:57;97621.2;;;13.47;100
17950;BME280;9100;48.700;9.316;2023-03-22T00:06:57;97615.3;;;13.46;100
17950;BME280;9100;48.700;9.316;2023-03-22T00:07:57;97555.2;;;13.08;100
17950;BME280;9100;48.700;9.316;2023-03-22T00:08:25;97609.7;;;13.43;100
17950;BME280;9100;48.700;9.316;2023-03-22T00:08:57;97611.3;;;13.44;100
17950;BME280;9100;48.700;9.316;2023-03-22T00:09:57;97611.5;;;13.42;100
17950;BME280;9100;48.700;9.316;2023-03-22T00:10:57;97613.09999999999;;;13.43;100
17950;BME280;9100;48.700;9.316;2023-03-22T00:11:57;97607.4;;;13.41;100
17950;BME280;9100;48.700;9.316;2023-03-22T00:12:57;97607.6;;;13.4;100
17950;BME280;9100;48.700;9.316;2023-03-22T00:13:25;97616;;;13.4;100
17950;BME280;9100;48.700;9.316;2023-03-22T00:13:57;97610.1;;;13.4;100
17950;BME280;9100;48.700;9.316;2023-03-22T00:14:58;97610.1;;;13.4;100
17950;BME280;9100;48.700;9.316;2023-03-22T00:15:57;97607;;;13.38;100
17950;BME280;9100;48.700;9.316;2023-03-22T00:16:57;97610.5;;;13.37;100
17950;BME280;9100;48.700;9.316;2023-03-22T00:17:57;97607.2;;;13.36;100
17950;BME280;9100;48.700;9.316;2023-03-22T00:18:25;97609;;;13.36;100
17950;BME280;9100;48.700;9.316;2023-03-22T00:18:57;97609.7;;;13.36;100
17950;BME280;9100;48.700;9.316;2023-03-22T00:19:57;97608;;;13.37;100
17950;BME280;9100;48.700;9.316;2023-03-22T00:20:57;97615.7;;;13.37;100
17950;BME280;9100;48.700;9.316;2023-03-22T00:21:57;97609;;;13.36;100
17950;BME280;9100;48.700;9.316;2023-03-22T00:22:57;97607.4;;;13.35;100
17950;BME280;9100;48.700;9.316;2023-03-22T00:23:25;97608.2;;;13.35;100
17950;BME280;9100;48.700;9.316;2023-03-22T00:23:57;97615.9;;;13.35;100
17950;BME280;9100;48.700;9.316;2023-03-22T00:24:57;97606.6;;;13.34;100
17950;BME280;9100;48.700;9.316;2023-03-22T00:25:57;97603.4;;;13.32;100
17950;BME280;9100;48.700;9.316;2023-03-22T00:26:57;97604.6;;;13.3;100
17950;BME280;9100;48.700;9.316;2023-03-22T00:27:57;97602.4;;;13.27;100
17950;BME280;9100;48.700;9.316;2023-03-22T00:28:26;97602.59999999999;;;13.25;100
17950;BME280;9100;48.700;9.316;2023-03-22T00:28:57;97606.2;;;13.24;100
17950;BME280;9100;48.700;9.316;2023-03-22T00:29:57;97601.8;;;13.25;100
17950;BME280;9100;48.700;9.316;2023-03-22T00:30:58;97606.2;;;13.24;100
17950;BME280;9100;48.700;9.316;2023-03-22T00:31:57;97607.2;;;13.23;100
17950;BME280;9100;48.700;9.316;2023-03-22T00:32:57;97537.2;;;12.82;100
17950;BME280;9100;48.700;9.316;2023-03-22T00:33:25;97596.5;;;13.2;100
17950;BME280;9100;48.700;9.316;2023-03-22T00:33:57;97600.8;;;13.19;100
17950;BME280;9100;48.700;9.316;2023-03-22T00:34:57;97536.6;;;12.8;100
17950;BME280;9100;48.700;9.316;2023-03-22T00:35:57;97588.4;;;13.16;100
17950;BME280;9100;48.700;9.316;2023-03-22T00:36:57;97592.7;;;13.16;100
17950;BME280;9100;48.700;9.316;2023-03-22T00:37:57;97591.4;;;13.13;100
17950;BME280;9100;48.700;9.316;2023-03-22T00:38:25;97592.9;;;13.14;100
17950;BME280;9100;48.700;9.316;2023-03-22T00:38:57;97590.59999999999;;;13.13;100
17950;BME280;9100;48.700;9.316;2023-03-22T00:39:57;97595.7;;;13.13;100
17950;BME280;9100;48.700;9.316;2023-03-22T00:41:02;97591.4;;;13.13;100
17950;BME280;9100;48.700;9.316;2023-03-22T00:41:57;97593.9;;;13.13;100
17950;BME280;9100;48.700;9.316;2023-03-22T00:42:57;97592.3;;;13.12;100
17950;BME280;9100;48.700;9.316;2023-03-22T00:43:26;97588.2;;;13.11;100
17950;BME280;9100;48.700;9.316;2023-03-22T00:43:57;97592.3;;;13.12;100
17950;BME280;9100;48.700;9.316;2023-03-22T00:44:57;97590.7;;;13.11;100
17950;BME280;9100;48.700;9.316;2023-03-22T00:45:57;97589.20000000001;;;13.1;100
17950;BME280;9100;48.700;9.316;2023-03-22T00:46:57;97589.20000000001;;;13.1;100
17950;BME280;9100;48.700;9.316;2023-03-22T00:47:57;97586.8;;;13.08;100
17950;BME280;9100;48.700;9.316;2023-03-22T00:48:25;97582.6;;;13.07;100
17950;BME280;9100;48.700;9.316;2023-03-22T00:48:57;97587;;;13.07;100
17950;BME280;9100;48.700;9.316;2023-03-22T00:49:57;97580.3;;;13.06;100
17950;BME280;9100;48.700;9.316;2023-03-22T00:50:57;97499;;;12.52;100
17950;BME280;9100;48.700;9.316;2023-03-22T00:51:57;97522.1;;;12.65;100
17950;BME280;9100;48.700;9.316;2023-03-22T00:52:57;97577.3;;;13.02;100
17950;BME280;9100;48.700;9.316;2023-03-22T00:53:25;97567.2;;;12.94;100
17950;BME280;9100;48.700;9.316;2023-03-22T00:53:57;97575.7;;;13.01;100
17950;BME280;9100;48.700;9.316;2023-03-22T00:54:58;97574.90000000001;;;13.01;100
17950;BME280;9100;48.700;9.316;2023-03-22T00:55:57;97578.5;;;13;100
17950;BME280;9100;48.700;9.316;2023-03-22T00:56:57;97577.70000000001;;;12.99;100
17950;BME280;9100;48.700;9.316;2023-03-22T00:57:57;97572.1;;;12.96;100
17950;BME280;9100;48.700;9.316;2023-03-22T00:58:25;97569.6;;;12.96;100
17950;BME280;9100;48.700;9.316;2023-03-22T00:58:57;97584;;;12.97;100
17950;BME280;9100;48.700;9.316;2023-03-22T00:59:57;97573.1;;;12.95;100
17950;BME280;9100;48.700;9.316;2023-03-22T01:00:57;97571.3;;;12.95;100
17950;BME280;9100;48.700;9.316;2023-03-22T01:01:57;97574.1;;;12.94;100
17950;BME280;9100;48.700;9.316;2023-03-22T01:02:58;97571.7;;;12.92;100
17950;BME280;9100;48.700;9.316;2023-03-22T01:03:26;97573.7;;;12.9;100
17950;BME280;9100;48.700;9.316;2023-03-22T01:03:57;97575.3;;;12.91;100
17950;BME280;9100;48.700;9.316;2023-03-22T01:04:57;97579.6;;;12.91;100
17950;BME280;9100;48.700;9.316;2023-03-22T01:05:57;97570.4;;;12.9;100
17950;BME280;9100;48.700;9.316;2023-03-22T01:06:57;97567.8;;;12.9;100
17950;BME280;9100;48.700;9.316;2023-03-22T01:07:58;97570.5;;;12.88;100
17950;BME280;9100;48.700;9.316;2023-03-22T01:08:25;97575.7;;;12.88;100
17950;BME280;9100;48.700;9.316;2023-03-22T01:08:57;97569.7;;;12.88;100
17950;BME280;9100;48.700;9.316;2023-03-22T01:09:57;97570;;;12.86;100
17950;BME280;9100;48.700;9.316;2023-03-22T01:10:58;97570.9;;;12.85;100
17950;BME280;9100;48.700;9.316;2023-03-22T01:11:57;97563.5;;;12.84;100
17950;BME280;9100;48.700;9.316;2023-03-22T01:12:57;97565.4;;;12.82;100
17950;BME280;9100;48.700;9.316;2023-03-22T01:13:25;97565.59999999999;;;12.8;100
17950;BME280;9100;48.700;9.316;2023-03-22T01:13:57;97563.8;;;12.81;100
17950;BME280;9100;48.700;9.316;2023-03-22T01:14:57;97564.20000000001;;;12.78;100
17950;BME280;9100;48.700;9.316;2023-03-22T01:15:57;97568.5;;;12.77;100
17950;BME280;9100;48.700;9.316;2023-03-22T01:16:57;97560.29999999999;;;12.75;100
17950;BME280;9100;48.700;9.316;2023-03-22T01:17:57;97564;;;12.73;100
17950;BME280;9100;48.700;9.316;2023-03-22T01:18:25;97557.3;;;12.72;100
17950;BME280;9100;48.700;9.316;2023-03-22T01:18:57;97570.1;;;12.72;100
17950;BME280;9100;48.700;9.316;2023-03-22T01:19:57;97559.3;;;12.7;100
17950;BME280;9100;48.700;9.316;2023-03-22T01:20:57;97562.8;;;12.69;100
17950;BME280;9100;48.700;9.316;2023-03-22T01:21:57;97561.2;;;12.68;100
17950;BME280;9100;48.700;9.316;2023-03-22T01:22:57;97558.8;;;12.66;100
17950;BME280;9100;48.700;9.316;2023-03-22T01:23:25;97557.5;;;12.63;100
17950;BME280;9100;48.700;9.316;2023-03-22T01:23:57;97558.3;;;12.64;100
17950;BME280;9100;48.700;9.316;2023-03-22T01:24:57;97562;;;12.61;100
17950;BME280;9100;48.700;9.316;2023-03-22T01:25:57;97554.7;;;12.58;100
17950;BME280;9100;48.700;9.316;2023-03-22T01:26:57;97556.7;;;12.56;100
17950;BME280;9100;48.700;9.316;2023-03-22T01:27:57;97555.5;;;12.52;100
17950;BME280;9100;48.700;9.316;2023-03-22T01:28:25;97556.4;;;12.51;100
17950;BME280;9100;48.700;9.316;2023-03-22T01:28:57;97548;;;12.51;100
17950;BME280;9100;48.700;9.316;2023-03-22T01:29:57;97555.2;;;12.47;100
17950;BME280;9100;48.700;9.316;2023-03-22T01:30:59;97550.7;;;12.43;100
17950;BME280;9100;48.700;9.316;2023-03-22T01:31:57;97548.5;;;12.4;100
17950;BME280;9100;48.700;9.316;2023-03-22T01:32:57;97538.8;;;12.35;100
17950;BME280;9100;48.700;9.316;2023-03-22T01:33:25;97547.5;;;12.34;100
17950;BME280;9100;48.700;9.316;2023-03-22T01:33:57;97541.6;;;12.34;100
17950;BME280;9100;48.700;9.316;2023-03-22T01:34:57;97549.5;;;12.32;100
17950;BME280;9100;48.700;9.316;2023-03-22T01:35:57;97541.2;;;12.3;100
17950;BME280;9100;48.700;9.316;2023-03-22T01:36:57;97541.2;;;12.3;100
17950;BME280;9100;48.700;9.316;2023-03-22T01:37:57;97543.7;;;12.3;100
17950;BME280;9100;48.700;9.316;2023-03-22T01:38:25;97543.7;;;12.3;100
17950;BME280;9100;48.700;9.316;2023-03-22T01:38:57;97543;;;12.3;100
17950;BME280;9100;48.700;9.316;2023-03-22T01:39:57;97539.59999999999;;;12.29;100
17950;BME280;9100;48.700;9.316;2023-03-22T01:40:57;97543;;;12.3;100
17950;BME280;9100;48.700;9.316;2023-03-22T01:41:57;97541.4;;;12.29;100
17950;BME280;9100;48.700;9.316;2023-03-22T01:42:57;97539;;;12.27;100
17950;BME280;9100;48.700;9.316;2023-03-22T01:43:25;97534.7;;;12.28;100
17950;BME280;9100;48.700;9.316;2023-03-22T01:44:14;97540.59999999999;;;12.28;100
17950;BME280;9100;48.700;9.316;2023-03-22T01:45:57;97538;;;12.28;100
17950;BME280;9100;48.700;9.316;2023-03-22T01:46:02;97530.4;;;12.28;100
17950;BME280;9100;48.700;9.316;2023-03-22T01:46:57;97532.1;;;12.28;100
17950;BME280;9100;48.700;9.316;2023-03-22T01:47:58;97533.90000000001;;;12.27;100
17950;BME280;9100;48.700;9.316;2023-03-22T01:48:26;97538.2;;;12.27;100
17950;BME280;9100;48.700;9.316;2023-03-22T01:48:57;97524.59999999999;;;12.26;100
17950;BME280;9100;48.700;9.316;2023-03-22T01:49:57;97529.7;;;12.26;100
17950;BME280;9100;48.700;9.316;2023-03-22T01:50:59;97527.59999999999;;;12.23;100
17950;BME280;9100;48.700;9.316;2023-03-22T01:51:57;97525.40000000001;;;12.2;100
17950;BME280;9100;48.700;9.316;2023-03-22T01:52:57;97529.3;;;12.16;100
17950;BME280;9100;48.700;9.316;2023-03-22T01:53:25;97529.1;;;12.11;100
17950;BME280;9100;48.700;9.316;2023-03-22T01:53:58;97524.90000000001;;;12.1;100
17950;BME280;9100;48.700;9.316;2023-03-22T01:54:57;97525.7;;;12.04;100
17950;BME280;9100;48.700;9.316;2023-03-22T01:55:57;97532.2;;;12;100
17950;BME280;9100;48.700;9.316;2023-03-22T01:56:57;97467.3;;;11.58;100
17950;BME280;9100;48.700;9.316;2023-03-22T01:57:57;97522.7;;;11.94;100
17950;BME280;9100;48.700;9.316;2023-03-22T01:58:25;97518.6;;;11.93;100
17950;BME280;9100;48.700;9.316;2023-03-22T01:58:58;97522.90000000001;;;11.92;100
17950;BME280;9100;48.700;9.316;2023-03-22T01:59:57;97522.1;;;11.92;100
17950;BME280;9100;48.700;9.316;2023-03-22T02:00:57;97520.3;;;11.92;100
17950;BME280;9100;48.700;9.316;2023-03-22T02:01:57;97527.20000000001;;;11.92;100
17950;BME280;9100;48.700;9.316;2023-03-22T02:02:57;97520.5;;;11.91;100
17950;BME280;9100;48.700;9.316;2023-03-22T02:03:29;97519.7;;;11.9;100
17950;BME280;9100;48.700;9.316;2023-03-22T02:03:58;97517;;;11.92;100
17950;BME280;9100;48.700;9.316;2023-03-22T02:04:57;97531.5;;;11.91;100
17950;BME280;9100;48.700;9.316;2023-03-22T02:05:57;97518.1;;;11.89;100
17950;BME280;9100;48.700;9.316;2023-03-22T02:06:57;97523.5;;;11.88;100
17950;BME280;9100;48.700;9.316;2023-03-22T02:07:57;97515.09999999999;;;11.79;100
17950;BME280;9100;48.700;9.316;2023-03-22T02:08:25;97519.5;;;11.85;100
17950;BME280;9100;48.700;9.316;2023-03-22T02:08:57;97525.40000000001;;;11.86;100
17950;BME280;9100;48.700;9.316;2023-03-22T02:09:58;97518.7;;;11.85;100
17950;BME280;9100;48.700;9.316;2023-03-22T02:10:57;97521.3;;;11.85;100
17950;BME280;9100;48.700;9.316;2023-03-22T02:12:00;97523.7;;;11.86;100
17950;BME280;9100;48.700;9.316;2023-03-22T02:12:59;97521.3;;;11.85;100
17950;BME280;9100;48.700;9.316;2023-03-22T02:13:28;97514.59999999999;;;11.84;100
17950;BME280;9100;48.700;9.316;2023-03-22T02:14:04;97516.09999999999;;;11.85;100
17950;BME280;9100;48.700;9.316;2023-03-22T02:15:00;97517.1;;;11.84;100
17950;BME280;9100;48.700;9.316;2023-03-22T02:16:00;97516.4;;;11.83;100
17950;BME280;9100;48.700;9.316;2023-03-22T02:17:00;97514.09999999999;;;11.8;100
17950;BME280;9100;48.700;9.316;2023-03-22T02:18:00;97511;;;11.78;100
17950;BME280;9100;48.700;9.316;2023-03-22T02:18:29;97513.7;;;11.77;100
17950;BME280;9100;48.700;9.316;2023-03-22T02:18:59;97512.2;;;11.76;100
17950;BME280;9100;48.700;9.316;2023-03-22T02:20:06;97513.09999999999;;;11.75;100
17950;BME280;9100;48.700;9.316;2023-03-22T02:21:18;97509.3;;;11.71;100
17950;BME280;9100;48.700;9.316;2023-03-22T02:22:03;97514.5;;;11.71;100
17950;BME280;9100;48.700;9.316;2023-03-22T02:23:03;97511.3;;;11.68;100
17950;BME280;9100;48.700;9.316;2023-03-22T02:24:03;97506.5;;;11.65;100
17950;BME280;9100;48.700;9.316;2023-03-22T02:26:01;97512.40000000001;;;11.59;100
17950;BME280;9100;48.700;9.316;2023-03-22T02:27:03;97506.7;;;11.57;100
17950;BME280;9100;48.700;9.316;2023-03-22T02:28:02;97511;;;11.57;100
17950;BME280;9100;48.700;9.316;2023-03-22T02:28:28;97512.8;;;11.56;100
17950;BME280;9100;48.700;9.316;2023-03-22T02:28:57;97509.3;;;11.57;100
17950;BME280;9100;48.700;9.316;2023-03-22T02:29:59;97509.3;;;11.57;100
17950;BME280;9100;48.700;9.316;2023-03-22T02:31:40;97503.5;;;11.55;100
17950;BME280;9100;48.700;9.316;2023-03-22T02:33:02;97507.3;;;11.53;100
17950;BME280;9100;48.700;9.316;2023-03-22T02:33:29;97506.5;;;11.52;100
17950;BME280;9100;48.700;9.316;2023-03-22T02:34:02;97509.2;;;11.51;100
17950;BME280;9100;48.700;9.316;2023-03-22T02:35:02;97499.8;;;11.51;100
17950;BME280;9100;48.700;9.316;2023-03-22T02:36:02;97500.8;;;11.5;100
17950;BME280;9100;48.700;9.316;2023-03-22T02:39:00;97506.2;;;11.47;100
17950;BME280;9100;48.700;9.316;2023-03-22T02:39:05;97503.5;;;11.49;100
17950;BME280;9100;48.700;9.316;2023-03-22T02:39:31;97508.8;;;11.47;100
17950;BME280;9100;48.700;9.316;2023-03-22T02:39:57;97495.2;;;11.47;100
17950;BME280;9100;48.700;9.316;2023-03-22T02:40:58;97500.3;;;11.47;100
17950;BME280;9100;48.700;9.316;2023-03-22T02:42:02;97500.5;;;11.45;100
17950;BME280;9100;48.700;9.316;2023-03-22T02:42:58;97404;;;10.84;100
17950;BME280;9100;48.700;9.316;2023-03-22T02:43:27;97430.2;;;11;100
17950;BME280;9100;48.700;9.316;2023-03-22T02:44:00;97498.2;;;11.44;100
17950;BME280;9100;48.700;9.316;2023-03-22T02:44:58;97495.8;;;11.42;100
17950;BME280;9100;48.700;9.316;2023-03-22T02:45:59;97497.7;;;11.4;100
17950;BME280;9100;48.700;9.316;2023-03-22T02:46:59;97495.4;;;11.39;100
17950;BME280;9100;48.700;9.316;2023-03-22T02:47:58;97505.8;;;11.37;100
17950;BME280;9100;48.700;9.316;2023-03-22T02:48:25;97500.7;;;11.37;100
17950;BME280;9100;48.700;9.316;2023-03-22T02:48:59;97495.6;;;11.37;100
17950;BME280;9100;48.700;9.316;2023-03-22T02:49:59;97502.09999999999;;;11.4;100
17950;BME280;9100;48.700;9.316;2023-03-22T02:50:58;97501.09999999999;;;11.41;100
17950;BME280;9100;48.700;9.316;2023-03-22T02:51:58;97501.09999999999;;;11.41;100
17950;BME280;9100;48.700;9.316;2023-03-22T02:52:59;97499.7;;;11.38;100
17950;BME280;9100;48.700;9.316;2023-03-22T02:53:26;97504;;;11.38;100
17950;BME280;9100;48.700;9.316;2023-03-22T02:53:57;97502.3;;;11.38;100
17950;BME280;9100;48.700;9.316;2023-03-22T02:54:59;97498.7;;;11.39;100
17950;BME280;9100;48.700;9.316;2023-03-22T02:55:57;97496.90000000001;;;11.4;100
17950;BME280;9100;48.700;9.316;2023-03-22T02:56:58;97507.4;;;11.38;100
17950;BME280;9100;48.700;9.316;2023-03-22T02:57:58;97501.59999999999;;;11.36;100
17950;BME280;9100;48.700;9.316;2023-03-22T02:58:26;97495.9;;;11.34;100
17950;BME280;9100;48.700;9.316;2023-03-22T02:58:58;97498.5;;;11.34;100
17950;BME280;9100;48.700;9.316;2023-03-22T02:59:58;97495.1;;;11.34;100
17950;BME280;9100;48.700;9.316;2023-03-22T03:00:58;97496.7;;;11.35;100
17950;BME280;9100;48.700;9.316;2023-03-22T03:01:57;97498.5;;;11.34;100
17950;BME280;9100;48.700;9.316;2023-03-22T03:02:57;97493.8;;;11.31;100
17950;BME280;9100;48.700;9.316;2023-03-22T03:03:25;97497.29999999999;;;11.3;100
17950;BME280;9100;48.700;9.316;2023-03-22T03:03:58;97493;;;11.31;100
17950;BME280;9100;48.700;9.316;2023-03-22T03:04:57;97495.7;;;11.29;100
17950;BME280;9100;48.700;9.316;2023-03-22T03:05:58;97497.7;;;11.27;100
17950;BME280;9100;48.700;9.316;2023-03-22T03:06:59;97502.4;;;11.24;100
17950;BME280;9100;48.700;9.316;2023-03-22T03:07:58;97499.40000000001;;;11.2;100
17950;BME280;9100;48.700;9.316;2023-03-22T03:08:25;97498;;;11.17;100
17950;BME280;9100;48.700;9.316;2023-03-22T03:08:57;97500.5;;;11.17;100
17950;BME280;9100;48.700;9.316;2023-03-22T03:09:57;97502.3;;;11.17;100
17950;BME280;9100;48.700;9.316;2023-03-22T03:10:57;97503.3;;;11.16;100
17950;BME280;9100;48.700;9.316;2023-03-22T03:11:57;97500.7;;;11.16;100
17950;BME280;9100;48.700;9.316;2023-03-22T03:12:57;97499.1;;;11.15;100
17950;BME280;9100;48.700;9.316;2023-03-22T03:13:25;97496.6;;;11.15;100
17950;BME280;9100;48.700;9.316;2023-03-22T03:13:57;97503.5;;;11.14;100
17950;BME280;9100;48.700;9.316;2023-03-22T03:14:57;97496.8;;;11.13;100
17950;BME280;9100;48.700;9.316;2023-03-22T03:15:57;97497;;;11.12;100
17950;BME280;9100;48.700;9.316;2023-03-22T03:17:03;97497.1;;;11.1;100
17950;BME280;9100;48.700;9.316;2023-03-22T03:18:02;97499.1;;;11.08;100
17950;BME280;9100;48.700;9.316;2023-03-22T03:18:28;97491.6;;;11.07;100
17950;BME280;9100;48.700;9.316;2023-03-22T03:18:57;97496.7;;;11.07;100
17950;BME280;9100;48.700;9.316;2023-03-22T03:20:00;97500.2;;;11.06;100
17950;BME280;9100;48.700;9.316;2023-03-22T03:20:59;97492;;;11.04;100
17950;BME280;9100;48.700;9.316;2023-03-22T03:21:57;97498.90000000001;;;11.03;100
17950;BME280;9100;48.700;9.316;2023-03-22T03:23:01;97494.9;;;11.01;100
17950;BME280;9100;48.700;9.316;2023-03-22T03:23:27;97498.40000000001;;;11;100
17950;BME280;9100;48.700;9.316;2023-03-22T03:23:59;97505.3;;;10.99;100
17950;BME280;9100;48.700;9.316;2023-03-22T03:24:59;97503.09999999999;;;10.96;100
17950;BME280;9100;48.700;9.316;2023-03-22T03:25:58;97501.70000000001;;;10.94;100
17950;BME280;9100;48.700;9.316;2023-03-22T03:26:57;97506.2;;;10.92;100
17950;BME280;9100;48.700;9.316;2023-03-22T03:27:58;97506.4;;;10.9;100
17950;BME280;9100;48.700;9.316;2023-03-22T03:28:27;97507.4;;;10.89;100
17950;BME280;9100;48.700;9.316;2023-03-22T03:28:58;97503.2;;;10.88;100
17950;BME280;9100;48.700;9.316;2023-03-22T03:29:58;97508.6;;;10.87;100
17950;BME280;9100;48.700;9.316;2023-03-22T03:30:58;97506.4;;;10.84;100
17950;BME280;9100;48.700;9.316;2023-03-22T03:32:00;97510.7;;;10.83;100
17950;BME280;9100;48.700;9.316;2023-03-22T03:32:58;97511.5;;;10.84;100
17950;BME280;9100;48.700;9.316;2023-03-22T03:33:25;97509.90000000001;;;10.83;100
17950;BME280;9100;48.700;9.316;2023-03-22T03:33:58;97511.5;;;10.84;100
17950;BME280;9100;48.700;9.316;2023-03-22T03:34:58;97492.9;;;10.75;100
17950;BME280;9100;48.700;9.316;2023-03-22T03:35:58;97510.90000000001;;;10.82;100
17950;BME280;9100;48.700;9.316;2023-03-22T03:36:58;97510.2;;;10.8;100
17950;BME280;9100;48.700;9.316;2023-03-22T03:37:57;97508.7;;;10.79;100
17950;BME280;9100;48.700;9.316;2023-03-22T03:38:26;97511.40000000001;;;10.77;100
17950;BME280;9100;48.700;9.316;2023-03-22T03:38:57;97517.9;;;10.8;100
17950;BME280;9100;48.700;9.316;2023-03-22T03:39:59;97509.3;;;10.81;100
17950;BME280;9100;48.700;9.316;2023-03-22T03:40:58;97505.5;;;10.77;100
17950;BME280;9100;48.700;9.316;2023-03-22T03:41:57;97504.1;;;10.74;100
17950;BME280;9100;48.700;9.316;2023-03-22T03:42:57;97520;;;10.69;100
17950;BME280;9100;48.700;9.316;2023-03-22T03:43:25;97497.2;;;10.68;100
17950;BME280;9100;48.700;9.316;2023-03-22T03:43:58;97509.2;;;10.67;100
17950;BME280;9100;48.700;9.316;2023-03-22T03:44:57;97507.4;;;10.68;100
17950;BME280;9100;48.700;9.316;2023-03-22T03:45:57;97511.7;;;10.67;100
17950;BME280;9100;48.700;9.316;2023-03-22T03:46:57;97510.90000000001;;;10.67;100
17950;BME280;9100;48.700;9.316;2023-03-22T03:47:59;97508.5;;;10.65;100
17950;BME280;9100;48.700;9.316;2023-03-22T03:48:27;97509.5;;;10.64;100
17950;BME280;9100;48.700;9.316;2023-03-22T03:48:57;97512.09999999999;;;10.64;100
17950;BME280;9100;48.700;9.316;2023-03-22T03:49:57;97511.5;;;10.62;100
17950;BME280;9100;48.700;9.316;2023-03-22T03:50:57;97514.4;;;10.59;100
17950;BME280;9100;48.700;9.316;2023-03-22T03:51:58;97516.5;;;10.56;100
17950;BME280;9100;48.700;9.316;2023-03-22T03:52:57;97514.3;;;10.53;100
17950;BME280;9100;48.700;9.316;2023-03-22T03:53:25;97512.8;;;10.52;100
17950;BME280;9100;48.700;9.316;2023-03-22T03:53:57;97518.7;;;10.52;100
17950;BME280;9100;48.700;9.316;2023-03-22T03:54:57;97512.09999999999;;;10.5;100
17950;BME280;9100;48.700;9.316;2023-03-22T03:55:57;97518.6;;;10.46;100
17950;BME280;9100;48.700;9.316;2023-03-22T03:56:57;97512.7;;;10.45;100
17950;BME280;9100;48.700;9.316;2023-03-22T03:57:57;97516.6;;;10.41;100
17950;BME280;9100;48.700;9.316;2023-03-22T03:58:25;97517.5;;;10.4;100
17950;BME280;9100;48.700;9.316;2023-03-22T03:58:57;97516.7;;;10.4;100
17950;BME280;9100;48.700;9.316;2023-03-22T03:59:57;97518.7;;;10.38;100
17950;BME280;9100;48.700;9.316;2023-03-22T04:00:57;97523;;;10.37;100
17950;BME280;9100;48.700;9.316;2023-03-22T04:01:57;97516.3;;;10.36;100
17950;BME280;9100;48.700;9.316;2023-03-22T04:02:57;97520;;;10.34;100
17950;BME280;9100;48.700;9.316;2023-03-22T04:03:26;97512.5;;;10.32;100
17950;BME280;9100;48.700;9.316;2023-03-22T04:03:57;97512.5;;;10.32;100
17950;BME280;9100;48.700;9.316;2023-03-22T04:04:57;97518;;;10.29;100
17950;BME280;9100;48.700;9.316;2023-03-22T04:05:57;97464.09999999999;;;9.95;100
17950;BME280;9100;48.700;9.316;2023-03-22T04:06:58;97519.5;;;10.23;100
17950;BME280;9100;48.700;9.316;2023-03-22T04:07:57;97519.1;;;10.2;100
17950;BME280;9100;48.700;9.316;2023-03-22T04:08:25;97517.5;;;10.19;100
17950;BME280;9100;48.700;9.316;2023-03-22T04:08:57;97515.9;;;10.18;100
17950;BME280;9100;48.700;9.316;2023-03-22T04:09:57;97515.9;;;10.18;100
17950;BME280;9100;48.700;9.316;2023-03-22T04:10:58;97521;;;10.18;100
17950;BME280;9100;48.700;9.316;2023-03-22T04:11:57;97518.5;;;10.18;100
17950;BME280;9100;48.700;9.316;2023-03-22T04:12:57;97517.9;;;10.16;100
17950;BME280;9100;48.700;9.316;2023-03-22T04:13:25;97516.09999999999;;;10.16;100
17950;BME280;9100;48.700;9.316;2023-03-22T04:13:58;97512;;;10.15;100
17950;BME280;9100;48.700;9.316;2023-03-22T04:14:57;97513.09999999999;;;10.13;100
17950;BME280;9100;48.700;9.316;2023-03-22T04:15:57;97510.1;;;10.09;100
17950;BME280;9100;48.700;9.316;2023-03-22T04:16:57;97507.9;;;10.06;100
17950;BME280;9100;48.700;9.316;2023-03-22T04:17:57;97512.59999999999;;;10.03;100
17950;BME280;9100;48.700;9.316;2023-03-22T04:18:26;97506.6;;;10.02;100
17950;BME280;9100;48.700;9.316;2023-03-22T04:18:57;97510.79999999999;;;10.03;100
17950;BME280;9100;48.700;9.316;2023-03-22T04:19:57;97512.59999999999;;;10.03;100
17950;BME280;9100;48.700;9.316;2023-03-22T04:20:57;97511.6;;;10.04;100
17950;BME280;9100;48.700;9.316;2023-03-22T04:21:57;97512.90000000001;;;10;100
17950;BME280;9100;48.700;9.316;2023-03-22T04:22:57;97515.5;;;10;100
17950;BME280;9100;48.700;9.316;2023-03-22T04:23:25;97516.4;;;9.99;100
17950;BME280;9100;48.700;9.316;2023-03-22T04:23:57;97511.3;;;9.99;100
17950;BME280;9100;48.700;9.316;2023-03-22T04:24:57;97511.3;;;9.99;100
17950;BME280;9100;48.700;9.316;2023-03-22T04:25:57;97514.8;;;9.98;100
17950;BME280;9100;48.700;9.316;2023-03-22T04:26:57;97519.2;;;9.97;100
17950;BME280;9100;48.700;9.316;2023-03-22T04:27:57;97515;;;9.96;100
17950;BME280;9100;48.700;9.316;2023-03-22T04:28:25;97517.7;;;9.95;100
17950;BME280;9100;48.700;9.316;2023-03-22T04:28:57;97518.7;;;9.94;100
17950;BME280;9100;48.700;9.316;2023-03-22T04:29:57;97513.59999999999;;;9.94;100
17950;BME280;9100;48.700;9.316;2023-03-22T04:30:57;97522.29999999999;;;9.93;100
17950;BME280;9100;48.700;9.316;2023-03-22T04:31:57;97510.29999999999;;;9.93;100
17950;BME280;9100;48.700;9.316;2023-03-22T04:32:57;97510.5;;;9.92;100
17950;BME280;9100;48.700;9.316;2023-03-22T04:33:25;97515;;;9.9;100
17950;BME280;9100;48.700;9.316;2023-03-22T04:33:57;97513.2;;;9.9;100
17950;BME280;9100;48.700;9.316;2023-03-22T04:34:57;97526.09999999999;;;9.89;100
17950;BME280;9100;48.700;9.316;2023-03-22T04:35:57;97521;;;9.89;100
17950;BME280;9100;48.700;9.316;2023-03-22T04:36:58;97507.6;;;9.87;100
17950;BME280;9100;48.700;9.316;2023-03-22T04:37:57;97506.1;;;9.86;100
17950;BME280;9100;48.700;9.316;2023-03-22T04:38:25;97515.5;;;9.85;100
17950;BME280;9100;48.700;9.316;2023-03-22T04:38:57;97513.7;;;9.86;100